Time;durP1;ratioP1;P1;durP2;ratioP2;P2;SDS_P1;SDS_P2;PMS_P1;PMS_P2;Temp;Humidity;BMP_temperature;BMP_pressure;BME280_temperature;BME280_humidity;BME280_pressure;Samples;Min_cycle;Max_cycle;Signal;HPM_P1;HPM_P2
2021/05/15 00:00:38;;;;;;;3.70;2.97;;;10.40;99.90;;;;;;6275276;28;20068;-76
2021/05/15 00:03:39;;;;;;;2.50;2.13;;;10.50;99.90;;;;;;6276567;28;20115;-76
2021/05/15 00:06:40;;;;;;;2.00;1.90;;;10.50;99.90;;;;;;6275522;28;20510;-77
2021/05/15 00:09:41;;;;;;;1.77;1.50;;;10.50;99.90;;;;;;6275667;28;20077;-76
2021/05/15 00:12:44;;;;;;;1.95;1.85;;;10.60;99.90;;;;;;6275900;28;20083;-75
2021/05/15 00:15:46;;;;;;;3.05;1.92;;;10.60;99.90;;;;;;6256874;28;20136;-77
2021/05/15 00:18:47;;;;;;;2.38;1.80;;;10.70;99.90;;;;;;6250206;28;20080;-76
2021/05/15 00:21:49;;;;;;;2.03;1.80;;;10.70;99.90;;;;;;6250024;28;20124;-76
2021/05/15 00:24:50;;;;;;;5.63;1.95;;;10.80;99.90;;;;;;6274652;28;20132;-76
2021/05/15 00:27:52;;;;;;;6.93;4.30;;;10.80;99.90;;;;;;6275211;28;20049;-75
2021/05/15 00:30:54;;;;;;;2.08;1.58;;;10.80;99.90;;;;;;6275214;28;20049;-76
2021/05/15 00:33:55;;;;;;;2.38;1.92;;;10.90;99.90;;;;;;6275020;28;20149;-77
2021/05/15 00:36:56;;;;;;;1.85;1.75;;;10.90;99.90;;;;;;6274736;28;20124;-77
2021/05/15 00:39:58;;;;;;;2.38;2.17;;;10.90;99.90;;;;;;6274851;28;20049;-77
2021/05/15 00:43:00;;;;;;;1.95;1.77;;;11.00;99.90;;;;;;6274825;28;20113;-77
2021/05/15 00:46:01;;;;;;;1.33;1.23;;;11.00;99.90;;;;;;6274415;28;20045;-77
2021/05/15 00:49:03;;;;;;;1.65;1.55;;;11.00;99.90;;;;;;6274445;28;20414;-76
2021/05/15 00:52:05;;;;;;;2.67;1.52;;;11.00;99.90;;;;;;6274317;28;20135;-77
2021/05/15 00:55:08;;;;;;;1.52;1.42;;;11.00;99.90;;;;;;6274838;28;20573;-77
2021/05/15 00:58:10;;;;;;;2.72;2.28;;;11.00;99.90;;;;;;6274238;28;20128;-77
2021/05/15 01:01:12;;;;;;;1.30;1.20;;;11.00;99.90;;;;;;6274475;28;20040;-77
2021/05/15 01:04:13;;;;;;;1.75;1.45;;;11.00;99.90;;;;;;6275334;28;20123;-77
2021/05/15 01:07:15;;;;;;;1.90;1.10;;;11.00;99.90;;;;;;6278015;28;20080;-76
2021/05/15 01:10:18;;;;;;;5.25;1.92;;;11.00;99.90;;;;;;6276903;28;20072;-76
2021/05/15 01:13:28;;;;;;;2.00;1.55;;;11.00;99.90;;;;;;6277599;28;20049;-76
2021/05/15 01:16:30;;;;;;;2.53;1.15;;;10.80;99.90;;;;;;6254033;28;20128;-75
2021/05/15 01:19:32;;;;;;;1.15;1.13;;;10.80;99.90;;;;;;6261247;28;20056;-77
2021/05/15 01:22:34;;;;;;;3.70;1.02;;;10.90;99.90;;;;;;6248968;28;20073;-76
2021/05/15 01:25:35;;;;;;;1.10;1.00;;;10.90;99.80;;;;;;6248871;28;20092;-76
2021/05/15 01:28:37;;;;;;;1.42;1.02;;;11.00;99.20;;;;;;6248511;28;20488;-76
2021/05/15 01:31:39;;;;;;;0.88;0.88;;;11.10;98.90;;;;;;6249118;28;20115;-76
2021/05/15 01:34:40;;;;;;;1.15;0.80;;;11.10;98.70;;;;;;6248652;28;20586;-76
2021/05/15 01:37:43;;;;;;;1.85;1.30;;;11.10;98.00;;;;;;6248713;28;20075;-76
2021/05/15 01:40:44;;;;;;;1.60;0.95;;;11.10;97.70;;;;;;6248614;28;20100;-77
2021/05/15 01:43:46;;;;;;;1.42;0.90;;;11.10;97.30;;;;;;6248418;28;20136;-77
2021/05/15 01:46:47;;;;;;;2.30;0.90;;;11.00;97.10;;;;;;6247786;28;20056;-76
2021/05/15 01:49:49;;;;;;;0.98;0.85;;;11.00;97.20;;;;;;6247610;28;20522;-76
2021/05/15 01:52:51;;;;;;;2.38;1.08;;;10.90;97.20;;;;;;6248428;28;20049;-77
2021/05/15 01:55:53;;;;;;;2.15;1.98;;;10.90;97.30;;;;;;6248314;28;20083;-77
2021/05/15 01:58:55;;;;;;;0.70;0.70;;;10.90;97.40;;;;;;6248036;28;20510;-76
2021/05/15 02:01:56;;;;;;;2.53;1.10;;;11.00;97.20;;;;;;6247746;28;20052;-76
2021/05/15 02:04:58;;;;;;;1.08;0.98;;;11.10;97.10;;;;;;6247807;28;20072;-77
2021/05/15 02:08:00;;;;;;;2.03;1.40;;;11.10;96.70;;;;;;6247857;28;20073;-77
2021/05/15 02:11:01;;;;;;;1.55;1.45;;;11.10;96.60;;;;;;6248355;28;20056;-77
2021/05/15 02:14:03;;;;;;;2.65;0.93;;;11.10;96.40;;;;;;6247655;28;20136;-77
2021/05/15 02:17:04;;;;;;;1.08;1.08;;;11.00;96.50;;;;;;6247612;28;20049;-76
2021/05/15 02:20:07;;;;;;;1.25;0.82;;;11.10;96.40;;;;;;6247851;28;20132;-76
2021/05/15 02:23:11;;;;;;;1.08;0.90;;;11.00;96.40;;;;;;6248666;28;20049;-76
2021/05/15 02:26:12;;;;;;;3.85;1.08;;;11.00;96.60;;;;;;6247492;28;20042;-77
2021/05/15 02:29:14;;;;;;;1.90;0.90;;;11.00;96.60;;;;;;6247591;28;20046;-76
2021/05/15 02:32:15;;;;;;;1.17;0.98;;;11.10;96.40;;;;;;6248064;28;20071;-76
2021/05/15 02:35:17;;;;;;;1.15;0.80;;;11.10;96.10;;;;;;6247686;28;20136;-77
2021/05/15 02:38:21;;;;;;;1.67;1.17;;;11.20;95.90;;;;;;6247197;28;20128;-77
2021/05/15 02:41:22;;;;;;;0.80;0.70;;;11.20;95.80;;;;;;6247011;28;20045;-76
2021/05/15 02:44:24;;;;;;;1.20;1.10;;;11.20;95.60;;;;;;6246908;28;20048;-77
2021/05/15 02:47:25;;;;;;;2.05;0.80;;;11.20;95.60;;;;;;6270544;28;20135;-77
2021/05/15 02:50:27;;;;;;;1.25;1.00;;;11.30;95.50;;;;;;6272206;28;20137;-76
2021/05/15 02:53:29;;;;;;;2.05;1.00;;;11.30;95.30;;;;;;6271774;28;20672;-76
2021/05/15 02:56:31;;;;;;;6.45;1.50;;;11.30;95.20;;;;;;6271960;28;20115;-76
2021/05/15 02:59:32;;;;;;;2.67;1.00;;;11.30;95.30;;;;;;6272086;28;20091;-77
2021/05/15 03:02:33;;;;;;;1.85;1.08;;;11.30;95.40;;;;;;6271730;28;20071;-77
2021/05/15 03:05:35;;;;;;;3.97;1.10;;;11.30;95.40;;;;;;6271629;28;20073;-77
2021/05/15 03:08:37;;;;;;;5.10;1.10;;;11.40;95.50;;;;;;6272012;28;20168;-77
2021/05/15 03:11:38;;;;;;;1.48;0.80;;;11.30;95.30;;;;;;6272097;28;20052;-76
2021/05/15 03:14:40;;;;;;;1.15;1.00;;;11.30;95.20;;;;;;6271986;28;20465;-77
2021/05/15 03:17:42;;;;;;;1.17;0.93;;;11.30;95.30;;;;;;6276310;28;20045;-77
2021/05/15 03:20:44;;;;;;;1.58;1.15;;;11.30;95.20;;;;;;6276308;28;20128;-76
2021/05/15 03:23:46;;;;;;;0.85;0.85;;;11.30;95.30;;;;;;6276914;28;20478;-77
2021/05/15 03:26:47;;;;;;;1.55;1.10;;;11.30;95.20;;;;;;6276750;28;20079;-76
2021/05/15 03:29:49;;;;;;;2.55;1.20;;;11.30;95.10;;;;;;6276577;28;20068;-76
2021/05/15 03:32:50;;;;;;;1.55;0.88;;;11.30;95.20;;;;;;6276226;28;20136;-78
2021/05/15 03:35:51;;;;;;;1.70;1.60;;;11.30;95.10;;;;;;6276423;28;20053;-77
2021/05/15 03:38:53;;;;;;;0.98;0.82;;;11.40;94.90;;;;;;6276436;28;20095;-77
2021/05/15 03:41:55;;;;;;;3.83;1.05;;;11.30;94.90;;;;;;6276166;28;20069;-77
2021/05/15 03:44:56;;;;;;;3.00;1.13;;;11.30;94.90;;;;;;6275698;28;20506;-78
2021/05/15 03:47:57;;;;;;;2.38;0.80;;;11.30;94.80;;;;;;6276200;28;20131;-77
2021/05/15 03:50:59;;;;;;;1.58;1.00;;;11.10;94.80;;;;;;6276033;28;20087;-77
2021/05/15 03:54:01;;;;;;;2.17;1.42;;;11.00;95.00;;;;;;6275611;28;20072;-77
2021/05/15 03:57:03;;;;;;;2.15;0.82;;;10.90;95.40;;;;;;6275492;28;20041;-78
2021/05/15 04:00:06;;;;;;;1.08;1.08;;;10.90;95.60;;;;;;6275656;28;20530;-77
2021/05/15 04:03:07;;;;;;;4.20;1.30;;;10.90;95.80;;;;;;6276945;28;20075;-78
2021/05/15 04:06:09;;;;;;;3.83;1.50;;;10.90;95.80;;;;;;6277155;28;20127;-78
2021/05/15 04:09:11;;;;;;;0.95;0.90;;;11.00;95.70;;;;;;6277055;28;20456;-77
2021/05/15 04:12:14;;;;;;;4.18;1.02;;;11.00;95.50;;;;;;6277307;28;20546;-77
2021/05/15 04:15:26;;;;;;;1.13;1.00;;;11.00;95.50;;;;;;6277915;28;20491;-78
2021/05/15 04:18:28;;;;;;;2.35;1.00;;;11.00;95.50;;;;;;6277280;28;20048;-78
2021/05/15 04:21:30;;;;;;;3.10;1.10;;;11.10;95.50;;;;;;6277978;28;20120;-78
2021/05/15 04:24:32;;;;;;;2.13;0.80;;;11.10;95.50;;;;;;6277532;28;20175;-78
2021/05/15 04:27:33;;;;;;;2.88;1.13;;;11.10;95.30;;;;;;6278410;28;20163;-78
2021/05/15 04:30:35;;;;;;;1.67;1.25;;;11.10;95.40;;;;;;6278137;28;20128;-77
2021/05/15 04:33:36;;;;;;;2.28;1.00;;;11.10;95.60;;;;;;6277446;28;20044;-78
2021/05/15 04:36:38;;;;;;;1.85;1.38;;;11.20;95.50;;;;;;6277984;28;20507;-78
2021/05/15 04:39:40;;;;;;;4.65;1.27;;;11.30;95.40;;;;;;6279400;28;20044;-77
2021/05/15 04:42:41;;;;;;;1.35;1.17;;;11.40;95.40;;;;;;6277384;28;20110;-78
2021/05/15 04:45:43;;;;;;;0.80;0.70;;;11.40;95.30;;;;;;6277843;28;20530;-78
2021/05/15 04:48:44;;;;;;;1.23;1.13;;;11.60;94.70;;;;;;6276202;28;20068;-78
2021/05/15 04:51:46;;;;;;;1.10;0.80;;;11.70;94.50;;;;;;6276138;28;20139;-77
2021/05/15 04:54:48;;;;;;;0.85;0.60;;;11.80;94.50;;;;;;6276386;28;20064;-78
2021/05/15 04:57:50;;;;;;;0.80;0.80;;;11.90;94.00;;;;;;6275895;28;20045;-77
2021/05/15 05:00:51;;;;;;;1.70;1.60;;;12.00;93.90;;;;;;6275767;28;20087;-77
2021/05/15 05:03:52;;;;;;;1.88;1.45;;;12.10;93.80;;;;;;6275723;28;20475;-78
2021/05/15 05:06:54;;;;;;;0.82;0.82;;;12.20;93.60;;;;;;6276403;28;20052;-77
2021/05/15 05:09:56;;;;;;;0.85;0.82;;;12.20;93.30;;;;;;6275123;28;20557;-77
2021/05/15 05:12:57;;;;;;;3.10;0.90;;;12.30;92.90;;;;;;6275215;28;20083;-77
2021/05/15 05:15:58;;;;;;;2.13;1.00;;;12.30;92.70;;;;;;6275452;28;20111;-77
2021/05/15 05:19:00;;;;;;;1.38;0.60;;;12.40;92.70;;;;;;6275497;28;20076;-77
2021/05/15 05:22:02;;;;;;;2.00;0.70;;;12.50;92.40;;;;;;6275218;28;20041;-78
2021/05/15 05:25:06;;;;;;;0.73;0.73;;;12.50;92.20;;;;;;6283487;28;20049;-76
2021/05/15 05:28:08;;;;;;;0.77;0.77;;;12.50;92.10;;;;;;6276813;28;20502;-77
2021/05/15 05:31:09;;;;;;;0.70;0.70;;;12.50;92.20;;;;;;6274839;28;20053;-77
2021/05/15 05:34:11;;;;;;;0.80;0.80;;;12.40;92.40;;;;;;6274617;28;20060;-77
2021/05/15 05:37:13;;;;;;;1.88;0.70;;;12.30;92.40;;;;;;6274016;28;20454;-77
2021/05/15 05:40:16;;;;;;;0.95;0.75;;;12.30;92.40;;;;;;6274038;28;20539;-77
2021/05/15 05:43:18;;;;;;;1.08;0.90;;;12.20;92.50;;;;;;6274732;28;20045;-77
2021/05/15 05:46:19;;;;;;;1.10;0.85;;;12.20;92.50;;;;;;6273747;28;20540;-77
2021/05/15 05:49:21;;;;;;;0.98;0.98;;;12.20;92.60;;;;;;6272508;28;20079;-78
2021/05/15 05:52:22;;;;;;;2.20;1.23;;;12.20;92.70;;;;;;6274977;28;20703;-77
2021/05/15 05:55:25;;;;;;;2.15;1.05;;;12.20;92.70;;;;;;6273755;28;20053;-77
2021/05/15 05:58:26;;;;;;;1.10;0.73;;;12.20;92.80;;;;;;6273914;28;20055;-77
2021/05/15 06:01:27;;;;;;;0.88;0.82;;;12.20;92.80;;;;;;6273507;28;20123;-77
2021/05/15 06:04:29;;;;;;;1.38;1.10;;;12.20;93.00;;;;;;6266492;28;20152;-77
2021/05/15 06:07:30;;;;;;;2.15;1.15;;;12.30;93.10;;;;;;6272925;28;20136;-77
2021/05/15 06:10:33;;;;;;;2.05;1.08;;;12.30;92.90;;;;;;6271781;28;20072;-77
2021/05/15 06:13:35;;;;;;;2.15;0.90;;;12.30;92.80;;;;;;6272386;28;20041;-77
2021/05/15 06:16:36;;;;;;;1.55;1.38;;;12.40;92.80;;;;;;6272222;28;20123;-77
2021/05/15 06:19:37;;;;;;;5.15;0.80;;;12.40;92.70;;;;;;6273244;28;20473;-77
2021/05/15 06:22:38;;;;;;;2.03;1.20;;;12.50;92.60;;;;;;6272103;28;20127;-77
2021/05/15 06:25:41;;;;;;;1.60;1.48;;;12.50;92.60;;;;;;6272037;28;20072;-77
2021/05/15 06:28:42;;;;;;;5.88;1.10;;;12.60;92.40;;;;;;6271836;28;20467;-77
2021/05/15 06:31:44;;;;;;;1.00;0.90;;;12.70;92.00;;;;;;6272683;28;20128;-77
2021/05/15 06:34:45;;;;;;;2.65;0.90;;;12.80;91.80;;;;;;6271752;28;20162;-76
2021/05/15 06:37:46;;;;;;;1.83;0.90;;;12.80;91.60;;;;;;6271689;28;20045;-76
2021/05/15 06:40:49;;;;;;;0.80;0.80;;;12.90;91.40;;;;;;6271640;28;20041;-76
2021/05/15 06:43:51;;;;;;;0.98;0.98;;;12.90;91.40;;;;;;6271457;28;20509;-76
2021/05/15 06:46:52;;;;;;;1.75;0.98;;;12.90;91.50;;;;;;6272723;28;20056;-76
2021/05/15 06:49:54;;;;;;;1.60;1.27;;;13.00;91.50;;;;;;6269339;28;20049;-76
2021/05/15 06:52:55;;;;;;;0.50;0.50;;;13.10;91.00;;;;;;6272130;28;20135;-76
2021/05/15 06:55:57;;;;;;;1.13;0.95;;;13.20;90.70;;;;;;6272101;28;20506;-76
2021/05/15 06:58:59;;;;;;;1.38;1.02;;;13.20;89.90;;;;;;6272231;28;20135;-77
2021/05/15 07:02:00;;;;;;;0.80;0.80;;;13.10;88.50;;;;;;6271502;28;20040;-76
2021/05/15 07:05:02;;;;;;;1.15;0.90;;;13.00;89.00;;;;;;6272570;28;20128;-78
2021/05/15 07:08:04;;;;;;;0.77;0.70;;;13.00;88.60;;;;;;6272008;28;20048;-76
2021/05/15 07:11:06;;;;;;;1.38;0.93;;;13.00;88.30;;;;;;6271934;28;20144;-79
2021/05/15 07:14:07;;;;;;;8.38;2.25;;;13.10;87.40;;;;;;6271780;28;20102;-77
2021/05/15 07:17:09;;;;;;;1.15;0.93;;;13.20;88.30;;;;;;6271435;28;20069;-77
2021/05/15 07:20:11;;;;;;;2.30;1.00;;;13.40;85.80;;;;;;6271849;28;20057;-76
2021/05/15 07:23:12;;;;;;;0.70;0.68;;;13.50;85.40;;;;;;6272245;28;20044;-76
2021/05/15 07:26:14;;;;;;;5.20;0.70;;;13.70;85.40;;;;;;6271343;28;20080;-76
2021/05/15 07:29:16;;;;;;;0.80;0.80;;;14.00;84.10;;;;;;6271272;28;20072;-77
2021/05/15 07:32:17;;;;;;;1.13;1.02;;;14.30;82.60;;;;;;6271749;28;20047;-76
2021/05/15 07:35:18;;;;;;;0.90;0.90;;;14.80;80.70;;;;;;6271934;28;20052;-76
2021/05/15 07:38:22;;;;;;;1.92;1.48;;;15.50;78.20;;;;;;6271139;28;20080;-76
2021/05/15 07:41:25;;;;;;;1.58;0.80;;;16.10;74.70;;;;;;6271726;28;20073;-77
2021/05/15 07:44:26;;;;;;;4.53;2.92;;;16.30;72.40;;;;;;6271492;28;20102;-78
2021/05/15 07:47:29;;;;;;;14.18;7.20;;;16.30;72.00;;;;;;6272668;28;20140;-77
2021/05/15 07:50:30;;;;;;;2.10;1.80;;;16.70;70.70;;;;;;6270189;28;20056;-76
2021/05/15 07:53:32;;;;;;;1.42;1.08;;;17.20;69.20;;;;;;6272663;28;20064;-77
2021/05/15 07:56:34;;;;;;;1.40;0.85;;;17.30;66.80;;;;;;6271783;28;20045;-78
2021/05/15 07:59:35;;;;;;;2.38;0.75;;;17.40;65.90;;;;;;6273833;28;20080;-78
2021/05/15 08:02:36;;;;;;;2.15;0.65;;;17.30;65.10;;;;;;6275701;28;20127;-76
2021/05/15 08:05:38;;;;;;;3.78;0.90;;;17.00;65.80;;;;;;6276953;28;20045;-77
2021/05/15 08:08:39;;;;;;;2.20;1.17;;;17.30;65.20;;;;;;6277065;28;20072;-78
2021/05/15 08:11:41;;;;;;;0.95;0.93;;;17.40;64.40;;;;;;6282859;28;20586;-75
2021/05/15 08:14:43;;;;;;;6.07;1.00;;;17.30;64.60;;;;;;6307797;28;20040;-76
2021/05/15 08:17:44;;;;;;;0.85;0.80;;;17.20;65.50;;;;;;6307324;28;20075;-77
2021/05/15 08:20:46;;;;;;;4.97;1.85;;;17.10;64.30;;;;;;6306915;28;20041;-77
2021/05/15 08:23:48;;;;;;;1.10;0.47;;;16.90;64.60;;;;;;6307211;28;20060;-77
2021/05/15 08:26:50;;;;;;;4.35;0.95;;;16.80;65.80;;;;;;6305968;28;20112;-76
2021/05/15 08:29:52;;;;;;;0.80;0.70;;;16.80;65.10;;;;;;6305657;28;20033;-77
2021/05/15 08:32:56;;;;;;;1.45;0.73;;;17.00;65.50;;;;;;6305077;28;20055;-77
2021/05/15 08:35:57;;;;;;;1.50;1.05;;;17.20;64.30;;;;;;6282087;28;20497;-76
2021/05/15 08:38:59;;;;;;;0.68;0.55;;;17.30;64.20;;;;;;6275441;28;20518;-75
2021/05/15 08:42:01;;;;;;;1.38;1.20;;;17.30;63.60;;;;;;6274242;28;20680;-76
2021/05/15 08:45:04;;;;;;;1.35;0.90;;;17.30;62.70;;;;;;6274366;28;20539;-77
2021/05/15 08:48:09;;;;;;;4.40;0.75;;;17.10;63.30;;;;;;6274301;28;20049;-77
2021/05/15 08:51:11;;;;;;;1.80;1.00;;;17.00;64.20;;;;;;6274026;28;20076;-77
2021/05/15 08:54:14;;;;;;;2.15;0.60;;;17.00;63.30;;;;;;6274445;28;20198;-76
2021/05/15 08:57:16;;;;;;;3.85;0.85;;;16.90;63.20;;;;;;6275003;28;20106;-77
2021/05/15 09:00:20;;;;;;;2.22;0.70;;;17.00;64.30;;;;;;6275520;28;20045;-77
2021/05/15 09:03:22;;;;;;;0.63;0.60;;;17.20;62.40;;;;;;6275430;28;20517;-77
2021/05/15 09:06:23;;;;;;;1.20;0.93;;;17.30;62.30;;;;;;6274957;28;20041;-77
2021/05/15 09:09:25;;;;;;;2.40;0.80;;;17.20;62.70;;;;;;6274292;28;20075;-77
2021/05/15 09:12:27;;;;;;;3.55;0.77;;;17.40;62.10;;;;;;6274636;28;20125;-78
2021/05/15 09:15:36;;;;;;;1.05;0.65;;;17.60;62.00;;;;;;6275614;28;20496;-77
2021/05/15 09:18:40;;;;;;;2.75;0.90;;;18.10;60.60;;;;;;6273375;28;20422;-77
2021/05/15 09:21:41;;;;;;;1.20;0.90;;;18.50;58.40;;;;;;6274391;28;20049;-77
2021/05/15 09:24:45;;;;;;;1.45;0.60;;;18.60;57.60;;;;;;6275332;28;20132;-77
2021/05/15 09:27:48;;;;;;;3.95;1.17;;;18.70;58.60;;;;;;6276765;28;20096;-77
2021/05/15 09:30:49;;;;;;;1.40;0.50;;;18.80;58.60;;;;;;6277176;28;20045;-77
2021/05/15 09:33:52;;;;;;;3.13;1.02;;;18.90;56.80;;;;;;6277317;28;20049;-77
2021/05/15 09:36:56;;;;;;;1.55;0.95;;;18.80;55.80;;;;;;6276888;28;20068;-77
2021/05/15 09:39:58;;;;;;;2.40;0.45;;;18.60;56.60;;;;;;6279663;28;20052;-76
2021/05/15 09:43:02;;;;;;;1.73;0.77;;;18.40;57.00;;;;;;6277219;28;20052;-77
2021/05/15 09:46:03;;;;;;;1.00;0.50;;;18.30;57.00;;;;;;6273069;28;20044;-77
2021/05/15 09:49:05;;;;;;;1.98;1.17;;;18.20;57.70;;;;;;6272489;28;20132;-77
2021/05/15 09:52:08;;;;;;;1.45;0.80;;;18.30;57.40;;;;;;6271263;28;20041;-77
2021/05/15 09:55:10;;;;;;;1.90;0.68;;;18.20;57.10;;;;;;6272207;28;20564;-77
2021/05/15 09:58:13;;;;;;;4.00;1.10;;;18.20;57.10;;;;;;6273308;28;20041;-77
2021/05/15 10:01:14;;;;;;;1.30;0.98;;;18.20;56.10;;;;;;6273242;28;20183;-78
2021/05/15 10:04:23;;;;;;;3.03;0.50;;;18.20;55.90;;;;;;6272664;28;20065;-76
2021/05/15 10:07:26;;;;;;;2.53;1.00;;;18.20;55.70;;;;;;6274349;28;20092;-77
2021/05/15 10:10:28;;;;;;;4.35;1.15;;;18.40;53.90;;;;;;6272937;28;20048;-76
2021/05/15 10:13:31;;;;;;;3.75;0.80;;;18.70;52.00;;;;;;6272916;28;20187;-75
2021/05/15 10:16:32;;;;;;;1.88;0.80;;;19.10;51.30;;;;;;6272393;28;20124;-76
2021/05/15 10:19:34;;;;;;;5.18;1.30;;;19.60;50.20;;;;;;6272703;28;20176;-76
2021/05/15 10:22:39;;;;;;;3.95;1.00;;;19.90;50.30;;;;;;6272347;28;20527;-76
2021/05/15 10:25:40;;;;;;;1.23;0.65;;;19.90;50.00;;;;;;6273202;28;20557;-77
2021/05/15 10:28:44;;;;;;;1.15;0.63;;;19.60;50.80;;;;;;6272534;28;20128;-77
2021/05/15 10:31:52;;;;;;;1.67;0.75;;;19.60;51.20;;;;;;6273970;28;20055;-77
2021/05/15 10:35:01;;;;;;;4.18;0.82;;;19.70;50.90;;;;;;6272276;28;20514;-77
2021/05/15 10:38:05;;;;;;;2.55;0.82;;;19.80;49.00;;;;;;6272217;28;20059;-77
2021/05/15 10:41:12;;;;;;;3.90;0.90;;;19.70;49.00;;;;;;6272008;28;20048;-75
2021/05/15 10:44:14;;;;;;;2.53;1.00;;;19.70;50.60;;;;;;6272057;28;20075;-76
2021/05/15 10:47:16;;;;;;;1.73;0.82;;;19.50;49.60;;;;;;6272846;28;20307;-77
2021/05/15 10:50:18;;;;;;;0.82;0.60;;;19.20;48.30;;;;;;6271894;28;20118;-77
2021/05/15 10:53:24;;;;;;;3.78;1.77;;;19.00;49.20;;;;;;6267287;28;20075;-76
2021/05/15 10:56:28;;;;;;;1.92;0.70;;;18.80;50.20;;;;;;6272046;28;20120;-77
2021/05/15 10:59:31;;;;;;;1.13;1.02;;;18.80;49.40;;;;;;6272295;28;20094;-77
2021/05/15 11:02:33;;;;;;;6.57;3.03;;;18.60;49.10;;;;;;6271539;28;20518;-76
2021/05/15 11:05:42;;;;;;;5.82;1.02;;;18.60;50.00;;;;;;6271800;28;20055;-76
2021/05/15 11:08:44;;;;;;;2.38;0.82;;;18.40;49.80;;;;;;6271504;28;20044;-77
2021/05/15 11:11:45;;;;;;;4.22;1.35;;;18.20;50.20;;;;;;6272567;28;20131;-76
2021/05/15 11:14:49;;;;;;;8.73;2.15;;;18.10;51.20;;;;;;6271802;28;20060;-76
2021/05/15 11:18:00;;;;;;;3.88;1.80;;;18.20;52.00;;;;;;6271280;28;20072;-75
2021/05/15 11:21:05;;;;;;;2.88;1.60;;;18.20;51.60;;;;;;6271379;28;20923;-76
2021/05/15 11:24:09;;;;;;;1.45;0.70;;;18.30;52.10;;;;;;6271515;28;20422;-75
2021/05/15 11:27:15;;;;;;;2.55;1.35;;;18.50;51.70;;;;;;6271609;28;20471;-76
2021/05/15 11:30:19;;;;;;;2.30;1.08;;;18.50;50.60;;;;;;6271618;28;20576;-76
2021/05/15 11:33:23;;;;;;;0.50;0.50;;;18.40;51.40;;;;;;6271568;28;20136;-76
2021/05/15 11:36:24;;;;;;;1.15;0.80;;;18.50;50.60;;;;;;6273136;28;20388;-76
2021/05/15 11:39:26;;;;;;;4.25;0.95;;;18.50;50.20;;;;;;6276911;28;20049;-76
2021/05/15 11:42:29;;;;;;;1.75;0.63;;;18.50;50.30;;;;;;6276332;28;20080;-75
2021/05/15 11:45:33;;;;;;;1.05;0.70;;;18.40;50.30;;;;;;6275702;28;20073;-76
2021/05/15 11:48:37;;;;;;;2.50;1.55;;;18.30;50.50;;;;;;6275970;28;20072;-76
2021/05/15 11:51:38;;;;;;;4.13;1.63;;;18.50;51.00;;;;;;6276409;28;20053;-76
2021/05/15 11:54:41;;;;;;;0.93;0.80;;;18.50;49.90;;;;;;6274226;28;20076;-76
2021/05/15 11:57:42;;;;;;;4.80;1.10;;;18.70;51.20;;;;;;6275814;28;20049;-76
2021/05/15 12:00:45;;;;;;;6.10;1.50;;;19.00;50.80;;;;;;6275335;28;20128;-76
2021/05/15 12:03:46;;;;;;;3.60;1.13;;;19.30;49.70;;;;;;6276579;28;20059;-76
2021/05/15 12:06:51;;;;;;;3.40;1.60;;;19.70;48.40;;;;;;6275346;28;20128;-76
2021/05/15 12:09:52;;;;;;;2.90;1.02;;;20.00;48.20;;;;;;6275491;28;20053;-77
2021/05/15 12:12:58;;;;;;;3.58;1.13;;;20.30;47.00;;;;;;6275048;28;20048;-77
2021/05/15 12:16:03;;;;;;;1.83;0.73;;;20.50;46.10;;;;;;6275428;28;20077;-77
2021/05/15 12:19:05;;;;;;;1.48;0.60;;;20.70;45.60;;;;;;6275184;28;20110;-76
2021/05/15 12:22:09;;;;;;;2.50;0.98;;;20.60;45.20;;;;;;6275092;28;20044;-76
2021/05/15 12:25:11;;;;;;;1.33;0.60;;;20.20;46.20;;;;;;6274862;28;20128;-76
2021/05/15 12:28:20;;;;;;;1.45;0.95;;;19.60;46.40;;;;;;6275162;28;20048;-76
2021/05/15 12:31:25;;;;;;;1.00;0.70;;;19.00;47.50;;;;;;6275262;28;20414;-76
2021/05/15 12:34:26;;;;;;;2.95;0.57;;;18.40;48.30;;;;;;6275080;28;20086;-75
2021/05/15 12:37:34;;;;;;;5.90;2.17;;;17.90;50.00;;;;;;6274945;28;20049;-75
2021/05/15 12:40:36;;;;;;;2.95;0.55;;;17.60;51.80;;;;;;6274764;28;20066;-76
2021/05/15 12:43:39;;;;;;;2.33;0.90;;;17.50;52.00;;;;;;6274836;28;20080;-76
2021/05/15 12:46:42;;;;;;;2.30;0.90;;;17.30;51.80;;;;;;6273368;28;20060;-76
2021/05/15 12:49:44;;;;;;;4.45;2.85;;;17.20;53.10;;;;;;6273073;28;20388;-75
2021/05/15 12:52:45;;;;;;;1.52;0.90;;;17.20;55.30;;;;;;6273646;28;20043;-75
2021/05/15 12:55:50;;;;;;;2.00;1.02;;;17.20;56.00;;;;;;6271947;28;20076;-76
2021/05/15 12:58:52;;;;;;;1.63;1.42;;;17.30;57.00;;;;;;6248932;28;20056;-75
2021/05/15 13:01:54;;;;;;;3.83;1.50;;;17.40;57.30;;;;;;6249515;28;20167;-75
2021/05/15 13:04:57;;;;;;;3.83;1.55;;;17.80;57.90;;;;;;6248551;28;20128;-75
2021/05/15 13:08:06;;;;;;;2.60;1.73;;;18.00;58.00;;;;;;6249152;28;20099;-76
2021/05/15 13:11:11;;;;;;;4.35;2.13;;;18.30;56.50;;;;;;6249016;28;20093;-75
2021/05/15 13:14:12;;;;;;;7.10;5.10;;;18.50;55.00;;;;;;6263763;28;20128;-76
2021/05/15 13:17:14;;;;;;;3.08;2.58;;;18.50;54.60;;;;;;6273283;28;20072;-75
2021/05/15 13:20:16;;;;;;;3.95;1.30;;;18.40;54.40;;;;;;6272791;28;20503;-76
2021/05/15 13:23:17;;;;;;;4.97;2.25;;;18.30;55.70;;;;;;6273642;28;20059;-75
2021/05/15 13:26:19;;;;;;;4.00;1.77;;;18.20;56.50;;;;;;6273253;28;20075;-76
2021/05/15 13:29:20;;;;;;;3.15;1.48;;;18.10;56.40;;;;;;6272769;28;20049;-75
2021/05/15 13:32:22;;;;;;;6.03;2.05;;;18.00;55.10;;;;;;6272980;28;20043;-75
2021/05/15 13:35:24;;;;;;;6.60;4.70;;;17.80;56.40;;;;;;6273540;28;20392;-76
2021/05/15 13:38:25;;;;;;;3.13;2.40;;;17.70;58.20;;;;;;6272884;28;20049;-76
2021/05/15 13:41:27;;;;;;;3.88;3.58;;;17.50;58.80;;;;;;6272854;28;20454;-76
2021/05/15 13:44:28;;;;;;;10.77;3.92;;;17.60;58.80;;;;;;6272462;28;20132;-76
2021/05/15 13:47:30;;;;;;;25.95;23.67;;;17.80;58.30;;;;;;6273301;28;20490;-75
2021/05/15 13:50:32;;;;;;;8.85;7.97;;;17.80;57.90;;;;;;6273106;28;20059;-75
2021/05/15 13:53:33;;;;;;;11.23;9.27;;;17.90;58.10;;;;;;6274624;28;20041;-75
2021/05/15 13:56:35;;;;;;;5.13;4.63;;;17.90;58.30;;;;;;6271312;28;20045;-75
2021/05/15 13:59:36;;;;;;;5.20;4.38;;;18.00;57.60;;;;;;6272269;28;20089;-76
2021/05/15 14:02:39;;;;;;;5.50;2.50;;;18.00;57.50;;;;;;6272827;28;20132;-75
2021/05/15 14:05:41;;;;;;;2.53;0.90;;;18.10;57.60;;;;;;6282821;28;20041;-75
2021/05/15 14:08:42;;;;;;;2.00;1.05;;;18.30;55.40;;;;;;6272289;28;20055;-76
2021/05/15 14:11:43;;;;;;;1.23;0.68;;;18.30;53.20;;;;;;6272984;28;20519;-76
2021/05/15 14:14:45;;;;;;;2.30;1.38;;;18.20;52.00;;;;;;6272474;28;20052;-75
2021/05/15 14:17:47;;;;;;;3.47;1.08;;;18.00;52.90;;;;;;6272464;28;20526;-78
2021/05/15 14:20:49;;;;;;;1.60;0.95;;;17.80;53.30;;;;;;6272008;28;20517;-75
2021/05/15 14:23:50;;;;;;;1.67;0.68;;;17.40;53.70;;;;;;6271901;28;20179;-73
2021/05/15 14:26:52;;;;;;;7.15;2.65;;;17.30;54.50;;;;;;6272382;28;20080;-76
2021/05/15 14:29:53;;;;;;;2.70;1.05;;;17.20;55.20;;;;;;6271920;28;20045;-76
2021/05/15 14:32:55;;;;;;;3.55;1.75;;;17.30;55.20;;;;;;6272425;28;20410;-76
2021/05/15 14:35:56;;;;;;;1.30;0.80;;;17.30;56.10;;;;;;6271423;28;20570;-75
2021/05/15 14:38:58;;;;;;;3.47;1.80;;;17.30;56.00;;;;;;6272171;28;20137;-77
2021/05/15 14:41:59;;;;;;;2.05;1.23;;;17.30;55.70;;;;;;6271969;28;20461;-75
2021/05/15 14:45:00;;;;;;;1.58;1.00;;;17.30;56.10;;;;;;6271743;28;20041;-76
2021/05/15 14:48:03;;;;;;;2.17;2.03;;;17.20;56.40;;;;;;6272770;28;20132;-76
2021/05/15 14:51:06;;;;;;;4.00;2.05;;;17.20;56.30;;;;;;6272590;28;20053;-77
2021/05/15 14:54:09;;;;;;;2.55;1.67;;;17.10;56.90;;;;;;6273354;28;20049;-74
2021/05/15 14:57:10;;;;;;;2.97;1.13;;;17.00;57.00;;;;;;6271393;28;20057;-75
2021/05/15 15:00:13;;;;;;;3.22;2.00;;;16.90;57.10;;;;;;6272071;28;20132;-75
2021/05/15 15:03:16;;;;;;;2.10;1.55;;;16.90;59.00;;;;;;6273080;28;20123;-76
2021/05/15 15:06:17;;;;;;;2.90;1.17;;;16.90;62.30;;;;;;6273025;28;20083;-76
2021/05/15 15:09:19;;;;;;;1.63;1.17;;;16.80;62.10;;;;;;6272573;28;20049;-76
2021/05/15 15:12:20;;;;;;;4.40;0.82;;;16.60;61.20;;;;;;6276313;28;20510;-76
2021/05/15 15:15:22;;;;;;;2.60;1.45;;;16.30;61.50;;;;;;6278211;28;20083;-76
2021/05/15 15:18:25;;;;;;;1.45;0.85;;;16.20;60.40;;;;;;6277233;28;20056;-76
2021/05/15 15:21:27;;;;;;;1.92;1.05;;;16.00;60.70;;;;;;6276849;28;20131;-76
2021/05/15 15:24:28;;;;;;;0.75;0.60;;;16.00;61.00;;;;;;6278483;28;20041;-77
2021/05/15 15:27:30;;;;;;;1.88;1.13;;;16.00;60.90;;;;;;6277747;28;20132;-77
2021/05/15 15:30:32;;;;;;;4.10;1.65;;;16.10;61.30;;;;;;6277275;28;20045;-76
2021/05/15 15:33:34;;;;;;;2.08;1.30;;;16.10;60.80;;;;;;6276734;28;20231;-76
2021/05/15 15:36:35;;;;;;;2.45;0.90;;;16.30;60.80;;;;;;6276386;28;20044;-76
2021/05/15 15:39:36;;;;;;;3.55;1.40;;;16.50;59.80;;;;;;6277448;28;20083;-78
2021/05/15 15:42:38;;;;;;;7.13;1.00;;;16.60;59.50;;;;;;6276731;28;20076;-76
2021/05/15 15:45:39;;;;;;;2.47;0.80;;;16.50;60.30;;;;;;6276596;28;20073;-78